Terminal Aerodrome Forecast
Issued by NWS

Home | Current Version | Previous Version | Text Only | Print | Product List | Glossary On
Versions: 1 2 3 4 5 6 7 8 9 10 11 12 13 14 15 16
000
FTUS46 KSTO 211140
TAFMHR
TAF
KMHR 211140Z 2112/2212 15010KT P6SM VCSH SCT040 OVC080
     FM211500 16015KT P6SM -SHRA OVC050
     FM211800 17015KT P6SM -SHRA OVC050
     FM220600 15020G25KT P6SM -RA OVC025
     FM220900 15025G35KT P6SM RA OVC010=

USA.gov is the U.S. government's official web portal to all federal, state and local government web resources and services.